Saint-Stanislas, Canada
Current Conditions -  °F | °C
As of 3:00 AM on Monday 26 Jan 2015 (Local Time) from CYRJ Reporting Station
Few Clouds Few Clouds  
Wind Chill: -35°   Ceiling: Unl
Heat Index: -26°   Visibility: 25mi
Dew Point: -30°   Wind: 7mph
Humidity: 70%   Direction: 260°W
Pressure: 30.06"   Gusts: NA
Location:  49°N, 72.17°W
Report Text: CYRJ 260800Z 26006KT 25SM FEW040 M26/M30 A3006 RMK SC1 SC TR SLP202
Loading
Personal Weather Stations






























Interactive Weather Map New forecast layout! Learn more

10-Day Weather Forecast

Advertisements
Track Severe Weather on mobile